Time;durP1;ratioP1;P1;durP2;ratioP2;P2;SDS_P1;SDS_P2;PMS_P1;PMS_P2;Temp;Humidity;BMP_temperature;BMP_pressure;BME280_temperature;BME280_humidity;BME280_pressure;Samples;Min_cycle;Max_cycle;Signal;HPM_P1;HPM_P2
2023/03/02 00:00:31;;;;;;;47.00;22.52;;;;;;;;;;5115568;27;20508;-57
2023/03/02 00:02:57;;;;;;;55.80;23.00;;;;;;;;;;5123916;27;20047;-61
2023/03/02 00:05:23;;;;;;;44.95;20.45;;;;;;;;;;5130115;27;20471;-55
2023/03/02 00:07:49;;;;;;;47.72;21.77;;;;;;;;;;5114811;27;20054;-56
2023/03/02 00:10:15;;;;;;;47.78;22.30;;;;;;;;;;5133637;27;20039;-56
2023/03/02 00:12:42;;;;;;;46.88;21.98;;;;;;;;;;5098638;27;20149;-59
2023/03/02 00:15:08;;;;;;;44.47;22.15;;;;;;;;;;5115623;27;20051;-60
2023/03/02 00:17:36;;;;;;;42.10;21.42;;;;;;;;;;5132931;27;20587;-60
2023/03/02 00:20:11;;;;;;;49.15;22.33;;;;;;;;;;5098294;27;20047;-57
2023/03/02 00:22:38;;;;;;;44.28;20.33;;;;;;;;;;5132337;27;20039;-59
2023/03/02 00:25:04;;;;;;;46.20;23.63;;;;;;;;;;5115138;27;20066;-60
2023/03/02 00:27:30;;;;;;;37.72;20.02;;;;;;;;;;5133175;27;20043;-58
2023/03/02 00:29:56;;;;;;;45.63;22.35;;;;;;;;;;5133414;27;20047;-55
2023/03/02 00:32:23;;;;;;;43.83;21.65;;;;;;;;;;5132809;27;20054;-60
2023/03/02 00:34:49;;;;;;;42.75;21.02;;;;;;;;;;5115252;27;20062;-60
2023/03/02 00:37:15;;;;;;;38.63;20.00;;;;;;;;;;5131968;27;20047;-59
2023/03/02 00:39:41;;;;;;;36.25;20.38;;;;;;;;;;5132014;27;20061;-59
2023/03/02 00:42:07;;;;;;;32.85;18.23;;;;;;;;;;5133305;27;20095;-60
2023/03/02 00:44:34;;;;;;;39.28;20.25;;;;;;;;;;5114492;27;20043;-59
2023/03/02 00:47:00;;;;;;;38.78;20.40;;;;;;;;;;5114696;27;20127;-59
2023/03/02 00:49:26;;;;;;;39.08;19.60;;;;;;;;;;5132764;27;20047;-59
2023/03/02 00:51:52;;;;;;;35.08;17.90;;;;;;;;;;5132565;27;20172;-59
2023/03/02 00:54:18;;;;;;;36.10;18.67;;;;;;;;;;5117516;27;20043;-60
2023/03/02 00:56:44;;;;;;;32.33;16.80;;;;;;;;;;5127475;27;20036;-55
2023/03/02 00:59:27;;;;;;;36.10;18.20;;;;;;;;;;5132793;27;20051;-58
2023/03/02 01:01:56;;;;;;;35.53;19.33;;;;;;;;;;5133297;27;20078;-57
2023/03/02 01:04:23;;;;;;;37.33;18.75;;;;;;;;;;5132778;27;20127;-59
2023/03/02 01:06:49;;;;;;;38.47;18.70;;;;;;;;;;5131335;27;20507;-59
2023/03/02 01:09:15;;;;;;;39.92;20.40;;;;;;;;;;5114577;27;20051;-57
2023/03/02 01:11:41;;;;;;;39.30;19.83;;;;;;;;;;5097251;27;20050;-59
2023/03/02 01:14:08;;;;;;;37.10;18.17;;;;;;;;;;5131920;27;20118;-56
2023/03/02 01:16:34;;;;;;;43.10;19.90;;;;;;;;;;5113311;28;20467;-59
2023/03/02 01:19:00;;;;;;;42.75;21.67;;;;;;;;;;5097710;28;20134;-59
2023/03/02 01:21:26;;;;;;;36.72;19.05;;;;;;;;;;5132170;28;20053;-59
2023/03/02 01:23:52;;;;;;;40.58;19.48;;;;;;;;;;5114790;28;20043;-58
2023/03/02 01:26:18;;;;;;;37.60;17.70;;;;;;;;;;5132607;28;20091;-57
2023/03/02 01:28:44;;;;;;;40.72;19.00;;;;;;;;;;5132221;28;20038;-59
2023/03/02 01:31:10;;;;;;;37.75;18.27;;;;;;;;;;5132164;28;20039;-57
2023/03/02 01:33:36;;;;;;;43.03;21.30;;;;;;;;;;5132967;28;20054;-60
2023/03/02 01:36:02;;;;;;;40.67;20.85;;;;;;;;;;5113642;28;20115;-59
2023/03/02 01:38:28;;;;;;;40.50;20.63;;;;;;;;;;5114239;28;20047;-59
2023/03/02 01:40:55;;;;;;;46.78;20.80;;;;;;;;;;5132472;28;20147;-58
2023/03/02 01:43:21;;;;;;;38.42;16.95;;;;;;;;;;5132086;28;20051;-59
2023/03/02 01:45:59;;;;;;;40.20;19.02;;;;;;;;;;5132258;28;20043;-56
2023/03/02 01:48:33;;;;;;;42.58;19.90;;;;;;;;;;5093101;28;20520;-59
2023/03/02 01:51:00;;;;;;;39.40;19.23;;;;;;;;;;5105353;28;20143;-58
2023/03/02 01:53:28;;;;;;;42.35;21.77;;;;;;;;;;5104074;28;20129;-59
2023/03/02 01:55:54;;;;;;;39.78;19.15;;;;;;;;;;5089850;28;20055;-57
2023/03/02 01:58:21;;;;;;;44.00;20.35;;;;;;;;;;5120427;28;20070;-59
2023/03/02 02:00:47;;;;;;;42.03;20.58;;;;;;;;;;5108292;28;20122;-59
2023/03/02 02:03:19;;;;;;;41.28;19.70;;;;;;;;;;5103832;28;20055;-57
2023/03/02 02:05:47;;;;;;;46.35;20.08;;;;;;;;;;5124220;28;20039;-60
2023/03/02 02:08:13;;;;;;;43.03;21.08;;;;;;;;;;5095970;28;20046;-58
2023/03/02 02:10:40;;;;;;;43.90;21.63;;;;;;;;;;5104762;28;20505;-61
2023/03/02 02:13:09;;;;;;;50.38;21.75;;;;;;;;;;5105609;28;20043;-59
2023/03/02 02:15:37;;;;;;;44.35;21.33;;;;;;;;;;5105036;28;20059;-58
2023/03/02 02:18:03;;;;;;;46.47;21.67;;;;;;;;;;5126809;27;20090;-56
2023/03/02 02:20:46;;;;;;;52.38;23.52;;;;;;;;;;5127267;27;20849;-59
2023/03/02 02:23:29;;;;;;;52.38;22.38;;;;;;;;;;5111771;27;20143;-59
2023/03/02 02:25:55;;;;;;;47.20;21.35;;;;;;;;;;5091310;27;20047;-58
2023/03/02 02:28:24;;;;;;;53.47;24.40;;;;;;;;;;5125360;27;20390;-58
2023/03/02 02:30:53;;;;;;;53.33;24.63;;;;;;;;;;5107330;27;20039;-59
2023/03/02 02:33:21;;;;;;;49.28;22.70;;;;;;;;;;5108134;27;20042;-59
2023/03/02 02:35:48;;;;;;;52.92;24.13;;;;;;;;;;5127523;27;20043;-59
2023/03/02 02:38:17;;;;;;;51.47;24.25;;;;;;;;;;5127431;27;20127;-59
2023/03/02 02:40:47;;;;;;;53.00;25.45;;;;;;;;;;5126324;27;20193;-59
2023/03/02 02:43:15;;;;;;;50.93;24.53;;;;;;;;;;5128136;27;20415;-56
2023/03/02 02:45:41;;;;;;;55.60;25.63;;;;;;;;;;5109428;27;20058;-60
2023/03/02 02:48:15;;;;;;;52.45;24.55;;;;;;;;;;5110495;27;20038;-54
2023/03/02 02:50:41;;;;;;;51.08;23.60;;;;;;;;;;5129140;27;20180;-54
2023/03/02 02:53:16;;;;;;;55.17;22.77;;;;;;;;;;5115344;27;20521;-56
2023/03/02 02:55:43;;;;;;;50.60;23.88;;;;;;;;;;5096786;27;20082;-59
2023/03/02 02:58:27;;;;;;;50.25;22.70;;;;;;;;;;5126992;27;20040;-59
2023/03/02 03:00:53;;;;;;;53.22;23.10;;;;;;;;;;5107419;27;20043;-59
2023/03/02 03:03:29;;;;;;;56.92;25.65;;;;;;;;;;5107737;27;21291;-59
2023/03/02 03:05:56;;;;;;;61.08;27.85;;;;;;;;;;5108325;27;20088;-60
2023/03/02 03:08:40;;;;;;;60.53;26.13;;;;;;;;;;5127478;27;20044;-56
2023/03/02 03:11:07;;;;;;;65.32;29.00;;;;;;;;;;5107763;27;20458;-60
2023/03/02 03:13:34;;;;;;;65.88;27.90;;;;;;;;;;5110659;27;20059;-59
2023/03/02 03:16:01;;;;;;;58.97;26.33;;;;;;;;;;5094909;27;20399;-58
2023/03/02 03:18:29;;;;;;;62.20;27.33;;;;;;;;;;5105511;28;20048;-57
2023/03/02 03:20:56;;;;;;;67.22;28.27;;;;;;;;;;5101044;28;20072;-59
2023/03/02 03:23:22;;;;;;;66.70;26.95;;;;;;;;;;5087745;28;20097;-58
2023/03/02 03:25:48;;;;;;;57.80;25.95;;;;;;;;;;5106450;28;20036;-59
2023/03/02 03:28:14;;;;;;;75.05;29.38;;;;;;;;;;5103183;28;20043;-60
2023/03/02 03:30:40;;;;;;;63.80;26.50;;;;;;;;;;5104674;28;20273;-59
2023/03/02 03:33:09;;;;;;;67.28;28.52;;;;;;;;;;5108238;28;20044;-59
2023/03/02 03:35:36;;;;;;;69.47;27.50;;;;;;;;;;5105932;28;21685;-59
2023/03/02 03:38:04;;;;;;;73.05;28.33;;;;;;;;;;5110784;28;20260;-60
2023/03/02 03:40:33;;;;;;;70.88;29.63;;;;;;;;;;5100199;28;20048;-58
2023/03/02 03:42:59;;;;;;;56.67;25.35;;;;;;;;;;5104205;28;20056;-58
2023/03/02 03:45:25;;;;;;;61.28;27.42;;;;;;;;;;5103394;28;20051;-58
2023/03/02 03:47:51;;;;;;;62.22;25.60;;;;;;;;;;5104855;28;20039;-59
2023/03/02 03:50:18;;;;;;;67.75;27.67;;;;;;;;;;5109136;28;20043;-59
2023/03/02 03:52:44;;;;;;;56.17;24.08;;;;;;;;;;5104177;28;20051;-58
2023/03/02 03:55:11;;;;;;;58.10;25.58;;;;;;;;;;5106166;28;20036;-59
2023/03/02 03:57:37;;;;;;;50.95;21.73;;;;;;;;;;5105481;28;20076;-60
2023/03/02 04:00:05;;;;;;;48.35;21.88;;;;;;;;;;5104092;28;20440;-59
2023/03/02 04:02:31;;;;;;;52.75;24.02;;;;;;;;;;5103829;28;20335;-58
2023/03/02 04:05:05;;;;;;;53.42;22.42;;;;;;;;;;5105268;28;20174;-60
2023/03/02 04:07:31;;;;;;;48.67;22.73;;;;;;;;;;5105894;28;20079;-55
2023/03/02 04:10:02;;;;;;;53.67;23.70;;;;;;;;;;5084484;28;20046;-59
2023/03/02 04:12:37;;;;;;;57.28;23.13;;;;;;;;;;5104737;28;20044;-59
2023/03/02 04:15:05;;;;;;;52.65;23.35;;;;;;;;;;5104918;28;20055;-60
2023/03/02 04:17:32;;;;;;;52.17;23.75;;;;;;;;;;5113729;27;20051;-57
2023/03/02 04:19:58;;;;;;;56.47;25.30;;;;;;;;;;5113900;27;20089;-60
2023/03/02 04:22:24;;;;;;;56.72;24.80;;;;;;;;;;5111553;27;20058;-59
2023/03/02 04:24:51;;;;;;;53.50;23.35;;;;;;;;;;5119828;27;20040;-60
2023/03/02 04:27:17;;;;;;;57.97;25.80;;;;;;;;;;5111736;27;20050;-58
2023/03/02 04:29:43;;;;;;;63.60;26.88;;;;;;;;;;5114809;27;20055;-59
2023/03/02 04:32:10;;;;;;;55.58;24.10;;;;;;;;;;5125864;27;20058;-59
2023/03/02 04:34:37;;;;;;;57.72;24.83;;;;;;;;;;5113299;28;20039;-59
2023/03/02 04:37:03;;;;;;;59.08;26.23;;;;;;;;;;5114867;27;20073;-59
2023/03/02 04:39:30;;;;;;;54.72;24.73;;;;;;;;;;5114916;27;20043;-59
2023/03/02 04:41:56;;;;;;;50.40;22.88;;;;;;;;;;5127229;27;20118;-60
2023/03/02 04:44:22;;;;;;;55.53;23.00;;;;;;;;;;5098134;27;20913;-60
2023/03/02 04:46:48;;;;;;;58.88;25.13;;;;;;;;;;5107300;27;20067;-60
2023/03/02 04:49:16;;;;;;;56.90;22.70;;;;;;;;;;5131983;27;20043;-60
2023/03/02 04:51:43;;;;;;;53.95;24.08;;;;;;;;;;5125732;27;20189;-61
2023/03/02 04:54:21;;;;;;;54.13;23.83;;;;;;;;;;5107401;27;20130;-59
2023/03/02 04:56:50;;;;;;;58.75;24.65;;;;;;;;;;5126525;27;20047;-58
2023/03/02 04:59:18;;;;;;;54.80;24.75;;;;;;;;;;5129663;27;20047;-59
2023/03/02 05:01:45;;;;;;;57.47;22.73;;;;;;;;;;5109996;27;20050;-59
2023/03/02 05:04:12;;;;;;;49.53;21.67;;;;;;;;;;5104592;27;20035;-61
2023/03/02 05:06:38;;;;;;;49.40;21.42;;;;;;;;;;5124535;27;20047;-59
2023/03/02 05:09:04;;;;;;;47.30;22.33;;;;;;;;;;5125498;27;20046;-59
2023/03/02 05:11:31;;;;;;;42.30;19.67;;;;;;;;;;5111306;28;20687;-60
2023/03/02 05:13:58;;;;;;;45.30;20.00;;;;;;;;;;5126618;27;20042;-59
2023/03/02 05:16:25;;;;;;;39.70;18.70;;;;;;;;;;5128989;27;20043;-59
2023/03/02 05:18:51;;;;;;;44.80;20.20;;;;;;;;;;5124034;27;20843;-59
2023/03/02 05:21:18;;;;;;;43.45;19.70;;;;;;;;;;5124875;27;20042;-59
2023/03/02 05:23:44;;;;;;;46.53;20.17;;;;;;;;;;5104426;28;20118;-59
2023/03/02 05:26:10;;;;;;;45.80;20.35;;;;;;;;;;5083188;28;20039;-59
2023/03/02 05:28:37;;;;;;;47.70;20.88;;;;;;;;;;5123495;28;20255;-60
2023/03/02 05:31:03;;;;;;;46.72;19.75;;;;;;;;;;5104206;28;20384;-58
2023/03/02 05:33:29;;;;;;;49.95;20.65;;;;;;;;;;5132008;28;20039;-59
2023/03/02 05:35:55;;;;;;;50.97;21.27;;;;;;;;;;5123620;28;20445;-58
2023/03/02 05:38:22;;;;;;;50.20;20.92;;;;;;;;;;5089363;28;20156;-57
2023/03/02 05:40:48;;;;;;;53.80;22.27;;;;;;;;;;5104875;28;20043;-60
2023/03/02 05:43:18;;;;;;;47.88;20.52;;;;;;;;;;5088822;28;20566;-58
2023/03/02 05:45:45;;;;;;;60.60;22.80;;;;;;;;;;5124081;28;20043;-59
2023/03/02 05:48:14;;;;;;;67.32;23.95;;;;;;;;;;5123345;28;20130;-61
2023/03/02 05:50:40;;;;;;;74.93;24.55;;;;;;;;;;5124016;28;20475;-59
2023/03/02 05:53:06;;;;;;;70.68;23.15;;;;;;;;;;5107812;27;20114;-58
2023/03/02 05:55:36;;;;;;;88.53;24.17;;;;;;;;;;5106559;27;20047;-59
2023/03/02 05:58:07;;;;;;;123.70;26.20;;;;;;;;;;5099595;28;20047;-58
2023/03/02 06:00:34;;;;;;;146.18;28.58;;;;;;;;;;5092245;27;20051;-59
2023/03/02 06:03:00;;;;;;;102.57;28.58;;;;;;;;;;5126153;27;20061;-59
2023/03/02 06:05:26;;;;;;;127.75;30.17;;;;;;;;;;5109849;27;20124;-59
2023/03/02 06:07:52;;;;;;;109.97;28.00;;;;;;;;;;5109932;27;20471;-59
2023/03/02 06:10:18;;;;;;;119.13;29.65;;;;;;;;;;5126201;27;20187;-59
2023/03/02 06:12:44;;;;;;;130.05;28.75;;;;;;;;;;5092271;27;20074;-59
2023/03/02 06:15:11;;;;;;;136.50;30.38;;;;;;;;;;5108240;27;20039;-59
2023/03/02 06:17:37;;;;;;;96.40;28.30;;;;;;;;;;5126690;27;20442;-59
2023/03/02 06:20:09;;;;;;;92.22;26.55;;;;;;;;;;5110274;27;20066;-60
2023/03/02 06:22:37;;;;;;;104.25;30.17;;;;;;;;;;5108925;27;20051;-59
2023/03/02 06:25:03;;;;;;;113.20;28.67;;;;;;;;;;5107733;27;20054;-59
2023/03/02 06:27:29;;;;;;;92.93;27.42;;;;;;;;;;5108432;27;20039;-58
2023/03/02 06:29:55;;;;;;;106.50;31.10;;;;;;;;;;5127214;27;20043;-58
2023/03/02 06:32:21;;;;;;;85.32;27.40;;;;;;;;;;5126532;27;20100;-59
2023/03/02 06:34:48;;;;;;;92.10;26.77;;;;;;;;;;5107580;27;20046;-59
2023/03/02 06:37:14;;;;;;;116.13;30.08;;;;;;;;;;5126798;27;20047;-58
2023/03/02 06:39:40;;;;;;;131.38;28.98;;;;;;;;;;5107514;27;20054;-59
2023/03/02 06:42:06;;;;;;;103.78;30.73;;;;;;;;;;5108519;27;20043;-59
2023/03/02 06:44:32;;;;;;;94.32;28.15;;;;;;;;;;5131892;27;20046;-58
2023/03/02 06:46:58;;;;;;;77.70;25.70;;;;;;;;;;5125891;27;20043;-58
2023/03/02 06:49:24;;;;;;;77.22;25.83;;;;;;;;;;5131865;27;20114;-59
2023/03/02 06:51:50;;;;;;;76.93;26.88;;;;;;;;;;5112467;27;20423;-59
2023/03/02 06:54:16;;;;;;;76.18;25.90;;;;;;;;;;5133554;27;20053;-59
2023/03/02 06:56:42;;;;;;;78.40;26.75;;;;;;;;;;5133991;27;20126;-58
2023/03/02 06:59:08;;;;;;;100.90;28.55;;;;;;;;;;5116573;27;20053;-59
2023/03/02 07:01:34;;;;;;;92.32;29.58;;;;;;;;;;5090846;27;20483;-58
2023/03/02 07:04:01;;;;;;;87.93;27.50;;;;;;;;;;5132922;27;20130;-58
2023/03/02 07:06:27;;;;;;;110.68;28.58;;;;;;;;;;5130563;27;20053;-59
2023/03/02 07:08:53;;;;;;;112.88;29.02;;;;;;;;;;5092221;28;20090;-58
2023/03/02 07:11:19;;;;;;;98.03;28.92;;;;;;;;;;5128701;27;20155;-59
2023/03/02 07:13:45;;;;;;;66.57;25.02;;;;;;;;;;5115382;27;20471;-59
2023/03/02 07:16:12;;;;;;;91.13;25.38;;;;;;;;;;5109207;27;20080;-61
2023/03/02 07:18:38;;;;;;;106.93;31.65;;;;;;;;;;5102868;28;20048;-59
2023/03/02 07:21:05;;;;;;;81.40;27.80;;;;;;;;;;5109291;28;20043;-58
2023/03/02 07:23:31;;;;;;;123.93;30.27;;;;;;;;;;5111903;28;20048;-58
2023/03/02 07:25:57;;;;;;;108.70;28.88;;;;;;;;;;5112648;28;20177;-57
2023/03/02 07:28:24;;;;;;;82.32;26.55;;;;;;;;;;5110326;28;20046;-58
2023/03/02 07:30:53;;;;;;;127.78;34.10;;;;;;;;;;5110933;28;20408;-58
2023/03/02 07:33:21;;;;;;;130.70;34.40;;;;;;;;;;5112889;28;20047;-59
2023/03/02 07:35:47;;;;;;;132.70;41.45;;;;;;;;;;5111220;28;20047;-58
2023/03/02 07:38:13;;;;;;;127.05;31.52;;;;;;;;;;5112221;28;20107;-57
2023/03/02 07:40:42;;;;;;;161.07;45.78;;;;;;;;;;5110242;28;20039;-58
2023/03/02 07:43:09;;;;;;;101.47;32.72;;;;;;;;;;5108036;28;20082;-58
2023/03/02 07:45:36;;;;;;;168.32;61.53;;;;;;;;;;5107209;28;20035;-59
2023/03/02 07:48:02;;;;;;;163.85;51.22;;;;;;;;;;5093236;28;20494;-58
2023/03/02 07:50:29;;;;;;;142.90;47.30;;;;;;;;;;5100449;28;20064;-59
2023/03/02 07:52:55;;;;;;;147.35;43.28;;;;;;;;;;5081552;28;20055;-60
2023/03/02 07:55:21;;;;;;;112.70;33.58;;;;;;;;;;5108975;28;20039;-60
2023/03/02 07:57:47;;;;;;;92.60;29.92;;;;;;;;;;5113743;28;20040;-59
2023/03/02 08:00:13;;;;;;;119.50;31.02;;;;;;;;;;5094249;28;20044;-58
2023/03/02 08:02:40;;;;;;;100.38;32.15;;;;;;;;;;5111014;28;20058;-59
2023/03/02 08:05:07;;;;;;;97.03;27.88;;;;;;;;;;5112904;28;20043;-58
2023/03/02 08:07:33;;;;;;;101.03;29.55;;;;;;;;;;5112552;28;20047;-59
2023/03/02 08:09:59;;;;;;;103.97;31.88;;;;;;;;;;5095510;28;20453;-58
2023/03/02 08:12:26;;;;;;;132.45;34.25;;;;;;;;;;5111254;28;20050;-58
2023/03/02 08:14:52;;;;;;;113.53;31.40;;;;;;;;;;5111408;28;20058;-58
2023/03/02 08:17:18;;;;;;;148.20;31.17;;;;;;;;;;5120181;27;20511;-59
2023/03/02 08:19:44;;;;;;;132.80;32.47;;;;;;;;;;5115287;27;20042;-58
2023/03/02 08:22:10;;;;;;;134.27;30.23;;;;;;;;;;5131295;27;20047;-59
2023/03/02 08:24:37;;;;;;;119.47;31.83;;;;;;;;;;5094117;28;20400;-59
2023/03/02 08:27:03;;;;;;;134.32;32.13;;;;;;;;;;5104837;28;20048;-56
2023/03/02 08:29:30;;;;;;;95.68;30.63;;;;;;;;;;5109175;27;20118;-59
2023/03/02 08:31:57;;;;;;;92.45;29.80;;;;;;;;;;5115131;27;20061;-58
2023/03/02 08:34:25;;;;;;;116.70;39.47;;;;;;;;;;5132115;27;20078;-58
2023/03/02 08:36:51;;;;;;;173.05;61.63;;;;;;;;;;5112906;27;20096;-59
2023/03/02 08:39:17;;;;;;;459.83;162.45;;;;;;;;;;5115363;27;20039;-57
2023/03/02 08:41:44;;;;;;;121.53;40.17;;;;;;;;;;5133746;27;20085;-59
2023/03/02 08:44:10;;;;;;;190.43;74.45;;;;;;;;;;5133544;27;20043;-58
2023/03/02 08:46:36;;;;;;;306.17;116.00;;;;;;;;;;5110076;27;20043;-58
2023/03/02 08:49:02;;;;;;;123.07;42.63;;;;;;;;;;5081235;28;20438;-59
2023/03/02 08:51:28;;;;;;;145.15;64.43;;;;;;;;;;5072826;27;20036;-58
2023/03/02 08:53:55;;;;;;;92.07;33.17;;;;;;;;;;5090962;27;20055;-56
2023/03/02 08:56:24;;;;;;;81.03;28.67;;;;;;;;;;5125992;27;20071;-57
2023/03/02 08:58:51;;;;;;;84.93;30.23;;;;;;;;;;5125259;27;20036;-58
2023/03/02 09:01:18;;;;;;;95.75;29.75;;;;;;;;;;5103394;27;20055;-58
2023/03/02 09:03:44;;;;;;;82.47;28.05;;;;;;;;;;5086567;27;20108;-58
2023/03/02 09:06:11;;;;;;;70.80;22.38;;;;;;;;;;5083872;27;20078;-58
2023/03/02 09:08:38;;;;;;;82.10;28.05;;;;;;;;;;5119399;27;20043;-59
2023/03/02 09:11:04;;;;;;;76.55;26.08;;;;;;;;;;5100319;27;20111;-58
2023/03/02 09:13:30;;;;;;;73.03;25.92;;;;;;;;;;5124185;27;20070;-58
2023/03/02 09:15:56;;;;;;;74.72;25.50;;;;;;;;;;5121154;28;20131;-60
2023/03/02 09:18:22;;;;;;;77.18;26.38;;;;;;;;;;5107619;27;20060;-59
2023/03/02 09:20:52;;;;;;;69.50;22.83;;;;;;;;;;5106202;28;20039;-58
2023/03/02 09:23:19;;;;;;;69.28;24.63;;;;;;;;;;5086713;28;20426;-55
2023/03/02 09:25:48;;;;;;;55.72;22.65;;;;;;;;;;5121249;27;20525;-59
2023/03/02 09:28:15;;;;;;;59.90;23.35;;;;;;;;;;5124652;28;20099;-59
2023/03/02 09:30:41;;;;;;;55.35;22.90;;;;;;;;;;5084000;28;20067;-60
2023/03/02 09:33:07;;;;;;;54.80;21.40;;;;;;;;;;5117558;28;20484;-58
2023/03/02 09:35:33;;;;;;;47.58;22.15;;;;;;;;;;5106552;28;20055;-55
2023/03/02 09:38:00;;;;;;;46.97;19.67;;;;;;;;;;5085986;28;20048;-59
2023/03/02 09:40:27;;;;;;;43.42;19.00;;;;;;;;;;5129049;28;20047;-58
2023/03/02 09:43:23;;;;;;;43.25;18.80;;;;;;;;;;5096377;28;20047;-57
2023/03/02 09:45:49;;;;;;;43.60;19.50;;;;;;;;;;5072533;28;20511;-59
2023/03/02 09:48:15;;;;;;;43.80;20.60;;;;;;;;;;5097285;28;20046;-58
2023/03/02 09:50:48;;;;;;;46.58;20.60;;;;;;;;;;5113564;28;20098;-59
2023/03/02 09:53:17;;;;;;;46.65;18.95;;;;;;;;;;5089747;28;20192;-56
2023/03/02 09:55:44;;;;;;;48.58;20.83;;;;;;;;;;5097327;28;20122;-56
2023/03/02 09:58:18;;;;;;;45.42;19.88;;;;;;;;;;5097451;28;20039;-62
2023/03/02 10:00:45;;;;;;;46.70;20.33;;;;;;;;;;5113452;28;20074;-58
2023/03/02 10:03:19;;;;;;;52.22;20.52;;;;;;;;;;5114366;28;20517;-62
2023/03/02 10:05:46;;;;;;;49.90;23.35;;;;;;;;;;5095930;27;20050;-58
2023/03/02 10:08:14;;;;;;;83.00;33.40;;;;;;;;;;5114077;28;20043;-59
2023/03/02 10:10:44;;;;;;;165.82;60.65;;;;;;;;;;5114122;28;20648;-58
2023/03/02 10:13:31;;;;;;;344.85;123.80;;;;;;;;;;5077287;28;20437;-59
2023/03/02 10:15:58;;;;;;;171.90;73.32;;;;;;;;;;5093885;28;20040;-58
2023/03/02 10:18:29;;;;;;;121.57;54.33;;;;;;;;;;5086357;28;20059;-56
2023/03/02 10:21:08;;;;;;;56.30;24.88;;;;;;;;;;5114130;28;20046;-54
2023/03/02 10:23:34;;;;;;;53.35;24.48;;;;;;;;;;5113225;28;20517;-56
2023/03/02 10:26:06;;;;;;;48.20;22.85;;;;;;;;;;5114491;28;20044;-58
2023/03/02 10:28:35;;;;;;;44.70;21.10;;;;;;;;;;5109405;28;20047;-57
2023/03/02 10:31:09;;;;;;;45.50;20.65;;;;;;;;;;5106358;28;20043;-57
2023/03/02 10:33:36;;;;;;;48.67;21.73;;;;;;;;;;5112414;28;20044;-57
2023/03/02 10:36:05;;;;;;;47.45;22.52;;;;;;;;;;5106145;28;20502;-56
2023/03/02 10:38:31;;;;;;;44.85;19.23;;;;;;;;;;5094129;27;20203;-56
2023/03/02 10:41:02;;;;;;;44.22;22.35;;;;;;;;;;5095434;27;20048;-59
2023/03/02 10:43:45;;;;;;;40.90;20.05;;;;;;;;;;5131253;27;20180;-59
2023/03/02 10:46:12;;;;;;;35.85;17.38;;;;;;;;;;5134496;27;20074;-61
2023/03/02 10:48:47;;;;;;;37.28;18.65;;;;;;;;;;5093316;28;20043;-60
2023/03/02 10:51:43;;;;;;;35.60;17.85;;;;;;;;;;5100402;27;20103;-56
2023/03/02 10:54:10;;;;;;;40.40;19.55;;;;;;;;;;5113915;27;20055;-59
2023/03/02 10:56:36;;;;;;;40.15;18.83;;;;;;;;;;5117021;27;20043;-56
2023/03/02 10:59:13;;;;;;;42.53;21.83;;;;;;;;;;5135915;27;20403;-59
2023/03/02 11:01:39;;;;;;;41.25;19.80;;;;;;;;;;5116966;27;20628;-58
2023/03/02 11:04:12;;;;;;;35.72;17.52;;;;;;;;;;5083642;27;20047;-54
2023/03/02 11:06:39;;;;;;;36.03;18.38;;;;;;;;;;5134459;27;20050;-58
2023/03/02 11:09:06;;;;;;;40.08;18.88;;;;;;;;;;5099314;27;20395;-57
2023/03/02 11:11:32;;;;;;;41.83;19.58;;;;;;;;;;5116674;27;20533;-59
2023/03/02 11:14:15;;;;;;;116.40;55.38;;;;;;;;;;5134454;27;20190;-58
2023/03/02 11:16:41;;;;;;;53.47;25.92;;;;;;;;;;5116765;27;20043;-57
2023/03/02 11:19:13;;;;;;;59.22;29.63;;;;;;;;;;5099355;27;20050;-57
2023/03/02 11:21:39;;;;;;;74.07;37.78;;;;;;;;;;5116269;27;20182;-58
2023/03/02 11:24:29;;;;;;;93.03;44.30;;;;;;;;;;5115595;27;20160;-59
2023/03/02 11:26:59;;;;;;;43.00;22.75;;;;;;;;;;5116865;27;20058;-59
2023/03/02 11:29:25;;;;;;;46.80;24.30;;;;;;;;;;5133360;27;20043;-59
2023/03/02 11:31:53;;;;;;;109.68;51.42;;;;;;;;;;5116573;27;20398;-59
2023/03/02 11:34:26;;;;;;;39.35;19.42;;;;;;;;;;5098531;27;20047;-57
2023/03/02 11:37:01;;;;;;;172.48;68.78;;;;;;;;;;5114948;27;20488;-58
2023/03/02 11:39:45;;;;;;;87.78;38.53;;;;;;;;;;5092415;27;20202;-57
2023/03/02 11:42:18;;;;;;;46.50;24.25;;;;;;;;;;5109820;27;20046;-65
2023/03/02 11:44:45;;;;;;;73.40;40.05;;;;;;;;;;5115319;27;20047;-56
2023/03/02 11:47:11;;;;;;;48.72;28.70;;;;;;;;;;5116328;27;20047;-60
2023/03/02 11:49:40;;;;;;;44.80;25.35;;;;;;;;;;5097912;27;20042;-59
2023/03/02 11:52:12;;;;;;;36.53;20.02;;;;;;;;;;5115072;27;20053;-59
2023/03/02 11:54:43;;;;;;;31.95;18.50;;;;;;;;;;5134016;27;20122;-60
2023/03/02 11:57:24;;;;;;;36.70;19.98;;;;;;;;;;5116532;27;20074;-59
2023/03/02 11:59:51;;;;;;;35.45;19.58;;;;;;;;;;5131486;27;20171;-60
2023/03/02 12:02:18;;;;;;;32.17;17.42;;;;;;;;;;5133090;27;20039;-60
2023/03/02 12:04:44;;;;;;;34.58;17.45;;;;;;;;;;5096662;27;20494;-59
2023/03/02 12:07:21;;;;;;;33.35;18.58;;;;;;;;;;5111169;27;20043;-60
2023/03/02 12:10:02;;;;;;;32.58;18.70;;;;;;;;;;5098682;27;20088;-57
2023/03/02 12:12:31;;;;;;;36.83;21.63;;;;;;;;;;5115480;27;20080;-57
2023/03/02 12:14:59;;;;;;;38.65;20.75;;;;;;;;;;5096664;27;20109;-56
2023/03/02 12:17:25;;;;;;;49.65;26.40;;;;;;;;;;5133837;27;20127;-57
2023/03/02 12:20:12;;;;;;;31.80;18.15;;;;;;;;;;5114434;27;20055;-60
2023/03/02 12:22:40;;;;;;;31.65;17.80;;;;;;;;;;5098718;27;20455;-60
2023/03/02 12:25:18;;;;;;;29.85;15.70;;;;;;;;;;5098973;27;20127;-58
2023/03/02 12:27:45;;;;;;;32.45;17.33;;;;;;;;;;5133582;27;20055;-58
2023/03/02 12:30:23;;;;;;;34.72;18.65;;;;;;;;;;5132263;27;20076;-66
2023/03/02 12:33:03;;;;;;;33.97;17.73;;;;;;;;;;5115571;27;20043;-59
2023/03/02 12:35:31;;;;;;;29.92;16.17;;;;;;;;;;5114341;27;20082;-58
2023/03/02 12:37:59;;;;;;;30.95;17.35;;;;;;;;;;5115527;27;20043;-60
2023/03/02 12:40:34;;;;;;;28.80;15.30;;;;;;;;;;5115100;27;20046;-57
2023/03/02 12:43:30;;;;;;;26.83;14.30;;;6.90;99.90;;;;;;5115161;27;20039;-57
2023/03/02 12:46:27;;;;;;;23.02;13.73;;;7.30;99.90;;;;;;5115366;27;20483;-60
2023/03/02 12:48:59;;;;;;;24.55;13.65;;;;;;;;;;5114054;27;20309;-58
2023/03/02 12:51:27;;;;;;;22.80;12.77;;;;;;;;;;5114073;27;20043;-58
2023/03/02 12:54:04;;;;;;;25.10;13.05;;;;;;;;;;5098569;27;20059;-56
2023/03/02 12:56:30;;;;;;;24.95;14.32;;;;;;;;;;5114805;27;20086;-59
2023/03/02 12:58:56;;;;;;;24.05;12.60;;;;;;;;;;5133148;27;20399;-60
2023/03/02 13:01:24;;;;;;;23.77;13.55;;;;;;;;;;5131232;27;20380;-57
2023/03/02 13:03:51;;;;;;;21.92;12.55;;;;;;;;;;5115348;27;20043;-54
2023/03/02 13:06:17;;;;;;;18.90;11.80;;;;;;;;;;5114531;27;20063;-59
2023/03/02 13:08:45;;;;;;;17.42;10.18;;;;;;;;;;5124560;27;20526;-58
2023/03/02 13:11:11;;;;;;;17.63;9.32;;;;;;;;;;5113927;27;20039;-58
2023/03/02 13:13:40;;;;;;;20.30;10.32;;;;;;;;;;5114987;27;20047;-56
2023/03/02 13:16:17;;;;;;;20.40;11.48;;;;;;;;;;5097815;27;20554;-58
2023/03/02 13:18:43;;;;;;;22.35;12.10;;;;;;;;;;5114208;28;20226;-58
2023/03/02 13:21:12;;;;;;;19.40;11.68;;;;;;;;;;5132217;27;20054;-61
2023/03/02 13:23:43;;;;;;;22.20;11.60;;;;;;;;;;5114837;28;20092;-57
2023/03/02 13:26:23;;;;;;;23.38;13.98;;;;;;;;;;5097812;28;20051;-60
2023/03/02 13:28:59;;;;;;;21.05;11.07;;;;;;;;;;5133098;28;20047;-60
2023/03/02 13:31:25;;;;;;;19.83;10.50;;;;;;;;;;5113286;28;20399;-59
2023/03/02 13:33:53;;;;;;;16.40;8.35;;;;;;;;;;5094651;28;20046;-59
2023/03/02 13:36:24;;;;;;;12.40;6.60;;;;;;;;;;5129884;27;20044;-59
2023/03/02 13:38:54;;;;;;;18.30;9.05;;;;;;;;;;5114332;28;20053;-56
2023/03/02 13:41:24;;;;;;;13.63;7.28;;;;;;;;;;5114584;28;20448;-59
2023/03/02 13:43:50;;;;;;;18.75;7.68;;;;;;;;;;5132375;28;20099;-60
2023/03/02 13:46:17;;;;;;;16.70;8.23;;;;;;;;;;5132453;28;20047;-61
2023/03/02 13:49:00;;;;;;;15.27;8.57;;;;;;;;;;5111096;28;20487;-59
2023/03/02 13:51:30;;;;;;;21.27;8.45;;;;;;;;;;5125955;28;20066;-59
2023/03/02 13:54:04;;;;;;;17.58;8.63;;;;;;;;;;5113800;28;20047;-62
2023/03/02 13:56:42;;;;;;;18.23;10.30;;;;;;;;;;5120715;27;20047;-57
2023/03/02 13:59:12;;;;;;;18.40;9.77;;;;;;;;;;5102679;28;20052;-60
2023/03/02 14:01:40;;;;;;;21.88;10.77;;;;;;;;;;5106862;28;20480;-61
2023/03/02 14:04:06;;;;;;;18.52;9.93;;;;;;;;;;5120231;28;20596;-57
2023/03/02 14:06:32;;;;;;;17.95;9.50;;;;;;;;;;5124415;28;20096;-57
2023/03/02 14:08:58;;;;;;;16.75;8.77;;;;;;;;;;5122101;28;20039;-59
2023/03/02 14:11:35;;;;;;;20.58;9.40;;;;;;;;;;5119236;28;20050;-59
2023/03/02 14:14:02;;;;;;;20.55;9.50;;;;;;;;;;5127641;27;20123;-61
2023/03/02 14:16:28;;;;;;;20.08;10.00;;;;;;;;;;5113507;27;20131;-60
2023/03/02 14:18:57;;;;;;;18.05;9.98;;;;;;;;;;5100764;27;20043;-58
2023/03/02 14:21:24;;;;;;;20.02;9.93;;;;;;;;;;5137527;27;20035;-60